Time;durP1;ratioP1;P1;durP2;ratioP2;P2;SDS_P1;SDS_P2;PMS_P1;PMS_P2;Temp;Humidity;BMP_temperature;BMP_pressure;BME280_temperature;BME280_humidity;BME280_pressure;Samples;Min_cycle;Max_cycle;Signal;HPM_P1;HPM_P2
2021/05/18 01:59:43;;;;;;;16.37;15.87;;;11.10;99.90;;;;;;4980546;26;20487;-68
2021/05/18 02:02:09;;;;;;;16.70;16.20;;;10.90;99.90;;;;;;4986209;28;20463;-69
2021/05/18 02:04:39;;;;;;;16.50;16.00;;;10.90;99.90;;;;;;4972185;28;20862;-69
2021/05/18 02:07:08;;;;;;;16.67;15.97;;;10.90;99.90;;;;;;4972208;28;20463;-69
2021/05/18 02:09:34;;;;;;;16.87;16.27;;;10.90;99.90;;;;;;4972125;28;20443;-70
2021/05/18 02:12:01;;;;;;;17.13;16.53;;;10.90;99.90;;;;;;4972065;28;20463;-70
2021/05/18 02:14:29;;;;;;;16.80;16.30;;;10.90;99.90;;;;;;4972248;28;20463;-70
2021/05/18 02:17:02;;;;;;;17.23;16.60;;;10.90;99.90;;;;;;4972298;28;20459;-70
2021/05/18 02:19:39;;;;;;;17.00;16.40;;;10.90;99.90;;;;;;4972389;28;20638;-70
2021/05/18 02:22:19;;;;;;;17.60;17.00;;;10.90;99.90;;;;;;4972256;28;20450;-70
2021/05/18 02:24:49;;;;;;;16.63;16.13;;;10.80;99.90;;;;;;4971869;28;20518;-70
2021/05/18 02:27:16;;;;;;;16.47;15.97;;;10.80;99.90;;;;;;4972108;28;20447;-70
2021/05/18 02:29:42;;;;;;;16.90;16.30;;;10.80;99.90;;;;;;4972023;28;20479;-71
2021/05/18 02:32:09;;;;;;;16.70;16.00;;;10.80;99.90;;;;;;4971855;28;20452;-70
2021/05/18 02:34:35;;;;;;;16.37;15.87;;;10.80;99.90;;;;;;4971870;28;20463;-71
2021/05/18 02:37:03;;;;;;;16.20;15.70;;;10.80;99.90;;;;;;4971814;28;20456;-70
2021/05/18 02:39:30;;;;;;;16.33;15.30;;;10.80;99.90;;;;;;4971333;28;20993;-71
2021/05/18 02:41:56;;;;;;;16.17;15.67;;;10.80;99.90;;;;;;4971871;28;20941;-71
2021/05/18 02:44:27;;;;;;;14.70;14.30;;;10.80;99.90;;;;;;4971772;28;20926;-71
2021/05/18 02:49:38;;;;;;;15.20;14.70;;;10.80;99.90;;;;;;4971542;28;20523;-70
2021/05/18 02:52:05;;;;;;;14.87;14.37;;;10.70;99.90;;;;;;4971751;28;20456;-71
2021/05/18 02:54:31;;;;;;;15.90;15.37;;;10.70;99.90;;;;;;4970808;28;20450;-71
2021/05/18 02:56:59;;;;;;;15.33;14.80;;;10.70;99.90;;;;;;4979525;28;21026;-71
2021/05/18 02:59:26;;;;;;;16.57;15.80;;;10.70;99.90;;;;;;4990791;28;20557;-71
2021/05/18 03:01:57;;;;;;;15.67;15.17;;;10.70;99.90;;;;;;4990904;28;20498;-71
2021/05/18 03:04:24;;;;;;;15.80;15.10;;;10.70;99.90;;;;;;4990881;28;20462;-71
2021/05/18 03:06:51;;;;;;;15.37;14.87;;;10.80;99.90;;;;;;4991005;28;20450;-73
2021/05/18 03:09:18;;;;;;;15.50;15.00;;;10.70;99.90;;;;;;4990826;28;20474;-72
2021/05/18 03:11:46;;;;;;;14.73;14.13;;;10.70;99.90;;;;;;4990973;28;20874;-72
2021/05/18 03:14:13;;;;;;;15.37;14.87;;;10.70;99.90;;;;;;4990835;28;20829;-73
2021/05/18 03:16:41;;;;;;;15.50;14.80;;;10.60;99.90;;;;;;4990968;28;20455;-72
2021/05/18 03:19:09;;;;;;;13.53;13.13;;;10.70;99.90;;;;;;4990650;28;20486;-73
2021/05/18 03:21:36;;;;;;;14.57;13.97;;;10.70;99.90;;;;;;4990615;28;20477;-73
2021/05/18 03:24:05;;;;;;;14.30;13.83;;;10.70;99.90;;;;;;4990803;28;20457;-73
2021/05/18 03:26:32;;;;;;;15.80;15.20;;;10.70;99.90;;;;;;4990768;28;20471;-72
2021/05/18 03:29:00;;;;;;;15.67;15.10;;;10.70;99.90;;;;;;4990667;28;20450;-72
2021/05/18 03:34:32;;;;;;;14.83;14.33;;;10.80;99.90;;;;;;4991022;28;20438;-72
2021/05/18 03:37:01;;;;;;;14.50;13.90;;;10.90;99.90;;;;;;4990529;28;20465;-73
2021/05/18 03:39:29;;;;;;;14.80;14.20;;;10.80;99.90;;;;;;4990544;28;20618;-73
2021/05/18 03:42:01;;;;;;;13.67;13.27;;;10.70;99.90;;;;;;4990485;28;20464;-72
2021/05/18 03:44:42;;;;;;;14.00;13.50;;;10.70;99.90;;;;;;4990511;28;20453;-73
2021/05/18 03:52:42;;;;;;;13.03;12.63;;;10.70;99.90;;;;;;4993829;28;20939;-72
2021/05/18 04:03:22;;;;;;;11.97;11.57;;;10.90;99.90;;;;;;4990291;28;20693;-73
2021/05/18 04:11:49;;;;;;;12.40;11.80;;;11.20;99.90;;;;;;4993713;28;20465;-72
2021/05/18 04:17:00;;;;;;;12.10;11.70;;;11.30;99.90;;;;;;4993692;28;20460;-72
2021/05/18 04:19:31;;;;;;;11.80;11.50;;;11.40;99.90;;;;;;4993716;28;20944;-73
2021/05/18 04:41:48;;;;;;;12.80;12.30;;;11.60;99.90;;;;;;5138371;27;20466;-72
2021/05/18 04:50:02;;;;;;;12.53;12.03;;;11.70;99.90;;;;;;5128433;27;20874;-72
2021/05/18 04:52:31;;;;;;;12.30;11.90;;;11.70;99.90;;;;;;5128578;27;20452;-72
2021/05/18 05:00:34;;;;;;;11.87;11.47;;;11.70;99.90;;;;;;5128214;27;20941;-73
2021/05/18 05:03:21;;;;;;;12.77;12.30;;;11.70;99.90;;;;;;5127999;27;20485;-73
2021/05/18 05:08:37;;;;;;;12.20;11.80;;;11.70;99.90;;;;;;5127924;27;20981;-72
2021/05/18 05:14:14;;;;;;;12.00;11.47;;;11.60;99.90;;;;;;5127957;27;20442;-72
2021/05/18 05:16:40;;;;;;;11.80;11.30;;;11.50;99.90;;;;;;5127964;27;20810;-73
2021/05/18 05:19:06;;;;;;;11.87;11.47;;;11.70;99.90;;;;;;5127558;27;20452;-73
2021/05/18 05:21:33;;;;;;;12.37;11.97;;;11.80;99.90;;;;;;5127759;27;20445;-73
2021/05/18 05:23:59;;;;;;;11.90;11.40;;;11.80;99.90;;;;;;5127646;27;21012;-72
2021/05/18 05:26:25;;;;;;;12.00;11.40;;;11.70;99.90;;;;;;5128057;27;20448;-72
2021/05/18 05:28:52;;;;;;;11.00;10.70;;;11.80;99.90;;;;;;5127283;27;20905;-72
2021/05/18 05:31:18;;;;;;;12.20;11.80;;;11.90;99.90;;;;;;5127492;27;20456;-72
2021/05/18 05:33:45;;;;;;;11.87;11.50;;;11.90;99.90;;;;;;5127627;27;20444;-72
2021/05/18 05:36:11;;;;;;;12.30;11.90;;;11.90;99.90;;;;;;5114071;27;20977;-73
2021/05/18 05:38:38;;;;;;;16.40;15.90;;;11.80;99.90;;;;;;5113574;28;20453;-70
2021/05/18 05:41:04;;;;;;;19.40;18.80;;;11.60;99.90;;;;;;5113908;28;20618;-72
2021/05/18 05:43:30;;;;;;;23.40;22.60;;;11.50;99.90;;;;;;5113397;28;20481;-72
2021/05/18 05:45:57;;;;;;;23.93;23.13;;;11.40;99.90;;;;;;5114025;28;20449;-72
2021/05/18 05:48:24;;;;;;;23.07;22.27;;;11.20;99.90;;;;;;5113473;28;20441;-72
2021/05/18 05:50:50;;;;;;;24.03;23.13;;;11.20;99.90;;;;;;5113471;28;20450;-71
2021/05/18 05:53:16;;;;;;;25.23;24.33;;;11.20;99.90;;;;;;5113149;28;20448;-72
2021/05/18 05:55:43;;;;;;;22.90;22.00;;;11.30;99.90;;;;;;5113592;28;20449;-72
2021/05/18 05:58:09;;;;;;;23.40;22.50;;;11.30;99.90;;;;;;5113421;27;20538;-72
2021/05/18 06:00:35;;;;;;;22.63;21.83;;;11.40;99.90;;;;;;5113521;28;20790;-72
2021/05/18 06:03:02;;;;;;;22.50;21.70;;;11.30;99.90;;;;;;5112916;28;20480;-72
2021/05/18 06:05:28;;;;;;;24.37;23.50;;;11.30;99.90;;;;;;5113479;28;20453;-72
2021/05/18 06:07:54;;;;;;;23.97;23.07;;;11.30;99.90;;;;;;5113367;28;20461;-72
2021/05/18 06:10:24;;;;;;;26.20;25.30;;;11.30;99.90;;;;;;5113252;28;20495;-72
2021/05/18 06:13:00;;;;;;;26.90;25.90;;;11.40;99.90;;;;;;5112953;28;20906;-72
2021/05/18 06:15:53;;;;;;;26.30;25.40;;;11.40;99.90;;;;;;5112950;28;20472;-71
2021/05/18 06:43:29;;;;;;;24.77;23.77;;;11.30;99.90;;;;;;5111602;28;20472;-72
2021/05/18 06:48:42;;;;;;;24.23;23.17;;;11.50;99.90;;;;;;5108513;28;20501;-73
2021/05/18 06:51:09;;;;;;;21.37;20.67;;;11.70;99.90;;;;;;5112466;28;20545;-73
2021/05/18 06:53:35;;;;;;;20.43;19.63;;;11.90;99.90;;;;;;5112237;28;20441;-73
2021/05/18 06:56:03;;;;;;;20.03;19.30;;;11.90;99.90;;;;;;5112018;28;20502;-72
2021/05/18 07:00:09;;;;;;;18.67;18.00;;;12.10;99.90;;;;;;5112260;28;20460;-72
2021/05/18 07:01:34;;;;;;;17.10;16.50;;;12.30;99.90;;;;;;5112143;28;20768;-73
2021/05/18 07:04:04;;;;;;;16.70;16.20;;;12.50;99.90;;;;;;5111873;28;20525;-73
2021/05/18 07:09:12;;;;;;;16.40;15.80;;;12.60;99.90;;;;;;5109994;27;20772;-72
2021/05/18 07:11:38;;;;;;;16.50;15.77;;;12.60;99.90;;;;;;5111881;28;20958;-72
2021/05/18 07:14:05;;;;;;;15.60;15.00;;;12.70;99.90;;;;;;5111749;28;20441;-73
2021/05/18 07:16:31;;;;;;;17.80;17.00;;;12.80;99.90;;;;;;5111805;28;20464;-72
2021/05/18 07:18:57;;;;;;;16.20;15.60;;;12.80;99.90;;;;;;5111642;28;20430;-72
2021/05/18 07:21:24;;;;;;;15.90;15.13;;;12.90;99.90;;;;;;5111665;28;20847;-72
2021/05/18 07:23:52;;;;;;;15.03;14.43;;;13.10;99.90;;;;;;5111248;28;20496;-72
2021/05/18 07:26:18;;;;;;;15.60;15.10;;;13.20;99.90;;;;;;5111953;28;20446;-72
2021/05/18 07:28:44;;;;;;;14.80;14.20;;;13.50;99.90;;;;;;5112043;28;20445;-72
2021/05/18 07:31:11;;;;;;;14.07;13.20;;;14.00;99.90;;;;;;5111811;28;20859;-72
2021/05/18 07:33:37;;;;;;;13.00;12.60;;;14.60;99.90;;;;;;5111486;28;20473;-73
2021/05/18 07:36:08;;;;;;;12.70;12.30;;;15.30;99.90;;;;;;5111586;28;20837;-72
2021/05/18 07:38:34;;;;;;;12.20;11.60;;;15.90;99.90;;;;;;5111562;28;20979;-73
2021/05/18 07:41:02;;;;;;;11.77;11.27;;;16.30;99.90;;;;;;5111499;28;20944;-73
2021/05/18 07:43:28;;;;;;;12.97;12.10;;;16.30;99.90;;;;;;5111805;28;20523;-73
2021/05/18 07:45:56;;;;;;;11.93;11.40;;;16.50;99.90;;;;;;5111420;28;20514;-72
2021/05/18 07:48:27;;;;;;;12.47;11.67;;;16.70;99.90;;;;;;5111325;28;20493;-72
2021/05/18 07:51:02;;;;;;;12.20;11.70;;;17.20;99.90;;;;;;5111306;28;20972;-71
2021/05/18 08:07:13;;;;;;;13.70;13.03;;;14.60;99.90;;;;;;5111294;28;20465;-74
2021/05/18 08:09:43;;;;;;;13.07;12.47;;;14.40;99.90;;;;;;5111037;28;20446;-74
2021/05/18 08:12:11;;;;;;;11.87;11.13;;;14.50;99.90;;;;;;5110918;28;20945;-73
2021/05/18 08:14:40;;;;;;;13.33;12.53;;;14.60;99.90;;;;;;5110802;28;20495;-73
2021/05/18 08:17:11;;;;;;;13.00;12.50;;;14.70;99.90;;;;;;5110781;28;20453;-72
2021/05/18 09:49:18;;;;;;;19.27;18.57;;;20.70;93.70;;;;;;5125391;27;20961;-74
2021/05/18 10:15:10;;;;;;;12.30;11.80;;;19.10;99.90;;;;;;5094043;27;20436;-76
2021/05/18 10:24:28;;;;;;;12.83;12.33;;;18.00;98.70;;;;;;5133680;27;20476;-74
2021/05/18 10:37:40;;;;;;;11.80;11.20;;;16.50;99.90;;;;;;5133967;27;20432;-74
2021/05/18 10:40:27;;;;;;;11.13;10.73;;;18.70;99.90;;;;;;5124874;27;20828;-72
2021/05/18 10:43:19;;;;;;;11.40;10.90;;;20.50;96.30;;;;;;5112963;28;20453;-74
2021/05/18 10:46:10;;;;;;;11.20;10.80;;;21.70;93.30;;;;;;5112739;28;20477;-72
2021/05/18 10:49:05;;;;;;;10.90;10.60;;;21.60;90.90;;;;;;5112406;28;20449;-72
2021/05/18 10:51:49;;;;;;;11.90;11.40;;;22.30;91.40;;;;;;5112529;28;20834;-72
2021/05/18 10:54:24;;;;;;;11.33;10.63;;;23.30;89.40;;;;;;5112391;28;20470;-72
2021/05/18 10:57:18;;;;;;;11.07;10.60;;;24.00;89.20;;;;;;5112780;28;20697;-72
2021/05/18 10:59:50;;;;;;;10.90;10.50;;;24.80;84.40;;;;;;5112459;28;20503;-72
2021/05/18 11:02:19;;;;;;;10.67;10.27;;;25.30;78.30;;;;;;5112469;28;20444;-72
2021/05/18 11:04:47;;;;;;;11.00;10.60;;;24.60;78.30;;;;;;5112314;28;21006;-72
2021/05/18 11:07:15;;;;;;;11.40;11.10;;;23.90;81.60;;;;;;5112476;28;20445;-72
2021/05/18 11:09:42;;;;;;;11.30;10.80;;;24.50;79.60;;;;;;5112550;28;20450;-72
2021/05/18 11:12:10;;;;;;;11.20;10.67;;;24.70;74.80;;;;;;5112352;28;20954;-72
2021/05/18 11:14:45;;;;;;;11.30;10.90;;;23.30;74.20;;;;;;5112304;28;20454;-72
2021/05/18 11:17:14;;;;;;;11.10;10.57;;;22.10;74.60;;;;;;5112501;28;20473;-72
2021/05/18 11:19:58;;;;;;;10.93;10.53;;;21.90;78.70;;;;;;5112295;28;20461;-72
2021/05/18 11:25:10;;;;;;;11.03;10.53;;;21.20;79.50;;;;;;5112192;28;20476;-72
2021/05/18 11:27:37;;;;;;;11.20;10.90;;;21.80;78.70;;;;;;5112043;28;20801;-72
2021/05/18 11:30:05;;;;;;;11.30;10.90;;;22.70;77.60;;;;;;5111856;28;20997;-72
2021/05/18 11:32:32;;;;;;;12.00;11.23;;;23.20;75.70;;;;;;5111354;28;20441;-72
2021/05/18 11:35:02;;;;;;;11.47;10.97;;;23.80;72.50;;;;;;5112060;28;20438;-72
2021/05/18 11:37:30;;;;;;;11.77;11.47;;;25.00;68.10;;;;;;5111903;28;20897;-71
2021/05/18 11:40:13;;;;;;;11.77;11.37;;;25.30;64.40;;;;;;5111946;28;20490;-71
2021/05/18 11:42:40;;;;;;;12.37;11.77;;;25.30;65.00;;;;;;5112587;27;20471;-72
2021/05/18 11:45:16;;;;;;;11.90;11.50;;;24.20;65.40;;;;;;5122349;27;20481;-72
2021/05/18 11:47:45;;;;;;;11.57;11.17;;;24.50;65.80;;;;;;5132004;27;20448;-72
2021/05/18 11:50:20;;;;;;;12.63;12.13;;;25.00;63.70;;;;;;5132390;27;20490;-71
2021/05/18 11:52:46;;;;;;;11.57;11.07;;;23.90;64.70;;;;;;5113905;27;20449;-70
2021/05/18 11:55:25;;;;;;;11.53;11.20;;;22.00;69.60;;;;;;5111778;28;20842;-70
2021/05/18 11:57:53;;;;;;;15.73;15.03;;;19.90;75.70;;;;;;5129214;27;20460;-71
2021/05/18 12:00:25;;;;;;;17.10;16.47;;;18.10;90.70;;;;;;5111465;27;20824;-70
2021/05/18 12:03:04;;;;;;;27.47;26.40;;;16.20;97.90;;;;;;5111207;28;20461;-73
2021/05/18 12:05:30;;;;;;;25.10;24.20;;;15.10;99.90;;;;;;5111252;28;20456;-73
2021/05/18 12:07:57;;;;;;;22.40;21.60;;;14.50;99.90;;;;;;5111358;28;20446;-73
2021/05/18 12:10:28;;;;;;;20.43;19.60;;;14.00;99.90;;;;;;5110832;28;20453;-73
2021/05/18 12:12:54;;;;;;;18.30;17.70;;;13.90;99.90;;;;;;5108738;28;20441;-74
2021/05/18 12:15:20;;;;;;;14.77;14.27;;;14.50;99.90;;;;;;5110499;28;20437;-74
2021/05/18 12:17:46;;;;;;;14.00;13.40;;;15.60;99.90;;;;;;5111018;28;20468;-73
2021/05/18 12:20:17;;;;;;;13.50;13.00;;;17.00;99.90;;;;;;5111146;28;20811;-75
2021/05/18 12:22:44;;;;;;;12.60;11.90;;;18.40;99.90;;;;;;5111063;28;20498;-73
2021/05/18 12:25:26;;;;;;;13.40;12.70;;;18.10;99.90;;;;;;5110895;28;20497;-74
2021/05/18 12:27:53;;;;;;;13.80;13.40;;;18.60;99.90;;;;;;5111192;28;20525;-74
2021/05/18 12:30:19;;;;;;;13.00;12.50;;;19.90;97.50;;;;;;5118309;27;20469;-75
2021/05/18 12:32:47;;;;;;;12.50;12.00;;;21.40;94.50;;;;;;5126279;27;20442;-74
2021/05/18 12:35:19;;;;;;;12.37;11.97;;;22.40;91.80;;;;;;5111015;28;20449;-73
2021/05/18 12:37:47;;;;;;;12.40;12.00;;;23.00;91.00;;;;;;5122186;27;20930;-75
2021/05/18 12:40:18;;;;;;;12.93;12.30;;;24.10;84.20;;;;;;5131623;27;20456;-75
2021/05/18 12:42:45;;;;;;;12.60;12.20;;;25.10;82.60;;;;;;5131935;27;20449;-74
2021/05/18 12:45:20;;;;;;;11.80;11.40;;;25.20;78.80;;;;;;5131056;27;20495;-73
2021/05/18 12:47:51;;;;;;;12.97;12.50;;;25.20;79.10;;;;;;5115077;28;20484;-72
2021/05/18 12:50:19;;;;;;;12.10;11.60;;;24.10;75.70;;;;;;5134147;27;20445;-71
2021/05/18 12:52:48;;;;;;;12.00;11.60;;;23.60;76.40;;;;;;5135448;27;20444;-71
2021/05/18 12:55:22;;;;;;;12.20;11.80;;;23.80;73.70;;;;;;5116782;27;20465;-71
2021/05/18 12:57:51;;;;;;;12.37;11.90;;;23.10;72.40;;;;;;5114691;27;20553;-71
2021/05/18 13:00:23;;;;;;;12.30;11.70;;;21.70;77.30;;;;;;5114868;28;20441;-71
2021/05/18 13:02:50;;;;;;;11.80;11.40;;;21.20;76.10;;;;;;5114763;28;20501;-71
2021/05/18 13:05:20;;;;;;;12.00;11.40;;;20.70;80.90;;;;;;5114495;28;20488;-70
2021/05/18 13:08:08;;;;;;;11.83;11.17;;;19.70;89.50;;;;;;5114711;28;21008;-70
2021/05/18 13:10:42;;;;;;;10.97;10.57;;;19.70;93.00;;;;;;5114953;27;20452;-70
2021/05/18 13:13:09;;;;;;;11.50;11.00;;;20.20;91.50;;;;;;5135313;27;20543;-70
2021/05/18 13:15:36;;;;;;;11.63;11.13;;;21.10;89.70;;;;;;5146716;27;20665;-70
2021/05/18 13:18:04;;;;;;;10.97;10.57;;;21.50;87.30;;;;;;5144773;27;20508;-71
2021/05/18 13:20:42;;;;;;;11.77;11.27;;;21.50;83.20;;;;;;5136457;27;20531;-70
2021/05/18 13:23:15;;;;;;;11.50;11.10;;;21.80;85.50;;;;;;5153579;27;20494;-71
2021/05/18 13:28:25;;;;;;;11.17;10.77;;;22.70;77.80;;;;;;5156209;27;20795;-71
2021/05/18 13:30:52;;;;;;;10.90;10.50;;;21.90;78.60;;;;;;5143854;27;20444;-71
2021/05/18 13:33:18;;;;;;;11.10;10.57;;;21.00;80.40;;;;;;5132406;27;20443;-71
2021/05/18 13:35:45;;;;;;;10.43;10.03;;;20.80;84.30;;;;;;5134822;27;20500;-70
2021/05/18 13:38:11;;;;;;;9.80;9.50;;;21.20;79.60;;;;;;5134444;27;20444;-70
2021/05/18 13:40:38;;;;;;;11.40;11.00;;;20.60;80.20;;;;;;5134510;27;20445;-70
2021/05/18 13:43:04;;;;;;;10.57;10.07;;;19.90;82.70;;;;;;5134545;27;20424;-70
2021/05/18 13:45:30;;;;;;;11.30;10.70;;;19.30;85.30;;;;;;5134223;27;20485;-70
2021/05/18 13:47:58;;;;;;;10.80;10.40;;;19.30;86.20;;;;;;5146277;27;20452;-70
2021/05/18 13:50:25;;;;;;;11.00;10.50;;;19.70;84.10;;;;;;5155294;27;20451;-70
2021/05/18 13:52:52;;;;;;;10.90;10.50;;;19.90;84.30;;;;;;5154956;27;20500;-70
2021/05/18 13:55:19;;;;;;;10.90;10.50;;;20.00;81.80;;;;;;5154453;27;20459;-70
2021/05/18 13:57:45;;;;;;;10.10;9.80;;;19.60;81.40;;;;;;5155018;27;20475;-70
2021/05/18 14:00:14;;;;;;;12.03;11.53;;;19.60;81.80;;;;;;5155333;27;20462;-70
2021/05/18 14:02:41;;;;;;;10.70;10.40;;;19.80;82.30;;;;;;5155177;27;20467;-70
2021/05/18 14:05:10;;;;;;;10.80;10.50;;;20.30;81.60;;;;;;5154826;27;20487;-70
2021/05/18 14:08:13;;;;;;;11.00;10.27;;;19.90;81.30;;;;;;5154825;27;20448;-70
2021/05/18 14:10:40;;;;;;;10.80;10.40;;;19.30;85.30;;;;;;5154418;27;20809;-70
2021/05/18 14:13:07;;;;;;;11.20;10.70;;;18.10;90.00;;;;;;5154699;27;20449;-71
2021/05/18 14:15:33;;;;;;;12.80;12.20;;;17.60;96.40;;;;;;5152075;27;20448;-71
2021/05/18 14:17:59;;;;;;;28.57;27.30;;;16.60;99.10;;;;;;5154852;27;20451;-71
2021/05/18 14:20:25;;;;;;;31.10;29.90;;;15.20;99.90;;;;;;5154542;27;20793;-73
2021/05/18 14:22:52;;;;;;;28.70;27.70;;;13.90;99.90;;;;;;5154215;27;20463;-73
2021/05/18 14:25:18;;;;;;;30.03;28.37;;;13.30;99.90;;;;;;5154134;27;20621;-74
2021/05/18 14:27:45;;;;;;;29.67;28.53;;;13.10;99.90;;;;;;5154435;27;20451;-73
2021/05/18 14:30:13;;;;;;;28.57;27.57;;;13.00;99.90;;;;;;5154698;27;20448;-72
2021/05/18 14:32:41;;;;;;;27.53;26.60;;;13.20;99.90;;;;;;5154523;27;20446;-72
2021/05/18 14:35:10;;;;;;;27.27;26.17;;;13.50;99.90;;;;;;5154195;27;20450;-72
2021/05/18 14:37:36;;;;;;;23.20;22.40;;;14.30;99.90;;;;;;5153976;27;20846;-72
2021/05/18 14:40:08;;;;;;;17.40;16.80;;;15.20;99.90;;;;;;5154164;27;20448;-72
2021/05/18 14:42:53;;;;;;;15.10;14.40;;;15.80;99.90;;;;;;5154062;27;20870;-74
2021/05/18 14:45:23;;;;;;;14.73;14.03;;;16.30;99.90;;;;;;5153898;27;21071;-71
2021/05/18 14:48:05;;;;;;;13.63;12.70;;;17.00;99.90;;;;;;5154036;27;20543;-71
2021/05/18 14:56:08;;;;;;;11.20;10.90;;;17.90;99.90;;;;;;5094835;27;20864;-73
2021/05/18 14:59:14;;;;;;;11.70;11.30;;;18.00;99.90;;;;;;5151980;27;20992;-73
2021/05/18 15:01:41;;;;;;;11.37;10.97;;;17.80;99.90;;;;;;5147206;27;20462;-73
2021/05/18 15:04:07;;;;;;;11.40;11.00;;;17.20;99.90;;;;;;5154108;27;20478;-73
2021/05/18 15:06:33;;;;;;;11.70;11.30;;;16.70;99.90;;;;;;5153964;27;20450;-73
2021/05/18 15:09:00;;;;;;;11.90;11.50;;;16.60;99.90;;;;;;5153037;27;20536;-73
2021/05/18 15:11:26;;;;;;;11.83;11.37;;;16.70;99.90;;;;;;5153875;27;20447;-73
2021/05/18 15:13:52;;;;;;;11.50;11.10;;;16.50;99.90;;;;;;5153880;27;20445;-73
2021/05/18 15:16:18;;;;;;;11.13;10.73;;;16.50;99.90;;;;;;5153720;27;20472;-73
2021/05/18 15:18:48;;;;;;;11.83;11.40;;;16.70;99.90;;;;;;5153599;27;20500;-73
2021/05/18 15:21:14;;;;;;;11.23;10.83;;;16.80;99.90;;;;;;5148855;27;20444;-74
2021/05/18 15:23:41;;;;;;;11.30;11.00;;;16.70;99.90;;;;;;5132719;27;20492;-73
2021/05/18 15:26:07;;;;;;;11.33;10.93;;;16.50;99.90;;;;;;5132705;27;20810;-73
2021/05/18 15:28:33;;;;;;;11.67;11.37;;;16.50;99.90;;;;;;5132836;27;20774;-73
2021/05/18 15:30:59;;;;;;;11.80;11.40;;;16.50;99.60;;;;;;5132826;27;20452;-74
2021/05/18 15:33:27;;;;;;;11.53;11.13;;;16.40;99.90;;;;;;5133002;27;20564;-75
2021/05/18 15:35:54;;;;;;;11.13;10.73;;;16.60;99.90;;;;;;5132559;27;20454;-73
2021/05/18 15:38:20;;;;;;;10.87;10.57;;;16.70;99.90;;;;;;5132614;27;20452;-73
2021/05/18 15:40:46;;;;;;;11.27;10.90;;;16.70;99.90;;;;;;5132452;27;20548;-72
2021/05/18 15:43:13;;;;;;;10.73;10.43;;;16.60;99.90;;;;;;5132517;27;20432;-71
2021/05/18 15:45:39;;;;;;;10.57;10.07;;;16.60;99.90;;;;;;5132329;27;20487;-71
2021/05/18 15:48:06;;;;;;;10.90;10.60;;;16.50;99.90;;;;;;5132317;27;20488;-70
2021/05/18 15:50:33;;;;;;;9.40;9.10;;;16.40;99.90;;;;;;5132366;27;20459;-70
2021/05/18 15:53:00;;;;;;;11.30;11.00;;;16.40;99.90;;;;;;5132104;27;20840;-71
2021/05/18 15:55:26;;;;;;;9.80;9.23;;;16.30;99.90;;;;;;5131979;27;20941;-70
2021/05/18 15:57:53;;;;;;;9.87;9.47;;;16.20;99.20;;;;;;5131935;27;20468;-70
2021/05/18 16:00:21;;;;;;;10.43;9.90;;;16.10;98.60;;;;;;5131922;27;20444;-70
2021/05/18 16:02:47;;;;;;;10.37;10.00;;;16.00;99.90;;;;;;5132025;27;20451;-70
2021/05/18 16:05:13;;;;;;;10.90;10.40;;;16.00;99.50;;;;;;5132246;27;20579;-70
2021/05/18 16:07:42;;;;;;;10.33;9.80;;;16.00;99.90;;;;;;5132298;27;20440;-70
2021/05/18 16:10:10;;;;;;;10.50;10.10;;;16.00;98.40;;;;;;5132050;27;20521;-70
2021/05/18 16:12:37;;;;;;;10.00;9.70;;;16.00;99.40;;;;;;5132138;27;20455;-70
2021/05/18 16:15:04;;;;;;;11.00;10.60;;;16.00;99.50;;;;;;5131974;27;20516;-71
2021/05/18 16:17:30;;;;;;;10.37;9.97;;;15.80;99.70;;;;;;5132297;27;20451;-71
2021/05/18 16:19:56;;;;;;;10.20;9.80;;;15.70;99.90;;;;;;5132169;27;20455;-71
2021/05/18 16:22:22;;;;;;;10.10;9.80;;;15.30;99.90;;;;;;5146491;27;20447;-71
2021/05/18 16:24:49;;;;;;;30.83;29.50;;;14.90;99.90;;;;;;5152348;27;20992;-71
2021/05/18 16:27:16;;;;;;;33.93;32.47;;;14.10;99.90;;;;;;5152691;27;20941;-72
2021/05/18 16:29:43;;;;;;;33.00;31.70;;;13.00;99.90;;;;;;5152722;27;20450;-71
2021/05/18 16:32:09;;;;;;;29.50;28.50;;;12.20;99.90;;;;;;5152607;27;20794;-73
2021/05/18 16:34:35;;;;;;;33.00;31.70;;;11.90;99.90;;;;;;5152138;27;20439;-72
2021/05/18 16:37:01;;;;;;;31.20;30.00;;;11.60;99.90;;;;;;5152319;27;20917;-72
2021/05/18 16:39:28;;;;;;;31.50;30.27;;;11.40;99.90;;;;;;5152007;27;20451;-73
2021/05/18 16:41:55;;;;;;;31.70;30.50;;;11.40;99.90;;;;;;5152074;27;20470;-73
2021/05/18 16:44:23;;;;;;;29.17;28.07;;;11.40;99.90;;;;;;5152031;27;20481;-72
2021/05/18 16:46:50;;;;;;;29.80;28.60;;;11.20;99.90;;;;;;5152296;27;20457;-73
2021/05/18 16:49:17;;;;;;;26.13;25.10;;;11.20;99.90;;;;;;5145140;27;20476;-71
2021/05/18 16:51:44;;;;;;;23.60;22.80;;;11.20;99.90;;;;;;5120393;27;20543;-72
2021/05/18 16:54:11;;;;;;;23.00;22.10;;;11.10;99.90;;;;;;5120147;27;20844;-72
2021/05/18 16:56:38;;;;;;;21.23;20.03;;;11.10;99.90;;;;;;5131207;27;20481;-72
2021/05/18 16:59:06;;;;;;;19.97;18.87;;;11.00;99.90;;;;;;5116442;27;20852;-72
2021/05/18 17:01:33;;;;;;;18.90;18.10;;;11.30;99.90;;;;;;5110651;28;20501;-72
2021/05/18 17:04:00;;;;;;;20.37;19.27;;;11.30;99.90;;;;;;5127660;27;20544;-72
2021/05/18 17:06:26;;;;;;;21.97;21.00;;;11.50;99.90;;;;;;5131060;27;20449;-73
2021/05/18 17:08:52;;;;;;;24.80;23.90;;;11.70;99.90;;;;;;5130881;27;20452;-72
2021/05/18 17:11:19;;;;;;;25.33;24.33;;;11.70;99.90;;;;;;5130621;27;20456;-73
2021/05/18 17:13:45;;;;;;;24.17;23.17;;;11.80;99.90;;;;;;5130833;27;20452;-72
2021/05/18 17:16:11;;;;;;;25.90;24.80;;;11.90;99.90;;;;;;5131293;27;20459;-73
2021/05/18 17:18:38;;;;;;;24.93;24.00;;;11.90;99.90;;;;;;5131102;27;20565;-73
2021/05/18 17:21:05;;;;;;;24.27;23.37;;;12.00;99.90;;;;;;5130836;27;20452;-72
2021/05/18 17:23:31;;;;;;;24.90;23.87;;;12.20;99.90;;;;;;5131002;27;20484;-72
2021/05/18 17:25:57;;;;;;;25.10;24.07;;;12.20;99.90;;;;;;5130790;27;20572;-72
2021/05/18 17:28:23;;;;;;;25.83;24.83;;;12.40;99.90;;;;;;5131064;27;20456;-72
2021/05/18 17:30:50;;;;;;;25.90;24.70;;;12.40;99.90;;;;;;5131549;27;20445;-72
2021/05/18 17:33:17;;;;;;;25.97;24.87;;;12.30;99.90;;;;;;5134523;27;20444;-72
2021/05/18 17:35:44;;;;;;;23.70;22.90;;;12.10;99.90;;;;;;5134423;27;20493;-71
2021/05/18 17:38:10;;;;;;;22.37;21.63;;;11.90;99.90;;;;;;5134816;27;20436;-71
2021/05/18 17:40:38;;;;;;;24.77;23.87;;;11.80;99.90;;;;;;5134443;27;20447;-72
2021/05/18 17:43:04;;;;;;;26.30;25.40;;;11.60;99.90;;;;;;5134327;27;20448;-72
2021/05/18 17:45:30;;;;;;;26.40;25.50;;;11.40;99.90;;;;;;5134308;27;20593;-71
2021/05/18 17:47:57;;;;;;;26.80;25.90;;;11.20;99.90;;;;;;5134365;27;20508;-72
2021/05/18 17:50:23;;;;;;;26.00;25.10;;;11.00;99.90;;;;;;5134477;27;20454;-72
2021/05/18 17:52:50;;;;;;;26.80;25.80;;;10.90;99.90;;;;;;5134311;27;20455;-72
2021/05/18 17:55:20;;;;;;;26.73;25.70;;;10.80;99.90;;;;;;5133763;27;20452;-72
2021/05/18 17:57:46;;;;;;;23.90;23.10;;;10.80;99.90;;;;;;5134049;27;20473;-71
2021/05/18 18:00:14;;;;;;;25.03;24.23;;;10.80;99.90;;;;;;5134403;27;20456;-72
2021/05/18 18:02:40;;;;;;;25.40;24.60;;;10.80;99.90;;;;;;5134460;27;20451;-71
2021/05/18 18:05:07;;;;;;;26.23;25.33;;;10.80;99.90;;;;;;5135216;27;20496;-70
2021/05/18 18:07:33;;;;;;;26.10;25.13;;;10.90;99.90;;;;;;5136569;27;20789;-71
2021/05/18 18:10:02;;;;;;;26.80;25.57;;;10.90;99.90;;;;;;5136352;27;20453;-71
2021/05/18 18:12:28;;;;;;;26.30;25.40;;;10.80;99.90;;;;;;5135057;27;20459;-71
2021/05/18 18:14:54;;;;;;;26.10;25.20;;;10.90;99.90;;;;;;5133783;27;20439;-71
2021/05/18 18:17:23;;;;;;;25.23;24.43;;;10.90;99.90;;;;;;5133442;27;20942;-71
2021/05/18 18:19:50;;;;;;;25.30;24.50;;;10.90;99.90;;;;;;5133064;27;21098;-71
2021/05/18 18:22:16;;;;;;;25.80;24.90;;;10.90;99.90;;;;;;5133452;27;20961;-71
2021/05/18 18:24:42;;;;;;;25.00;24.10;;;10.80;99.90;;;;;;5133075;27;20519;-72
2021/05/18 18:27:11;;;;;;;27.20;26.17;;;10.70;99.90;;;;;;5133399;27;20505;-72
2021/05/18 18:29:39;;;;;;;27.13;26.23;;;10.80;99.90;;;;;;5133559;27;20449;-72
2021/05/18 18:32:07;;;;;;;26.70;25.80;;;10.80;99.90;;;;;;5133047;27;20479;-72
2021/05/18 18:34:33;;;;;;;25.77;24.87;;;10.70;99.90;;;;;;5133495;27;20445;-71
2021/05/18 18:37:01;;;;;;;26.10;25.20;;;10.70;99.90;;;;;;5133719;27;20446;-71
2021/05/18 18:39:28;;;;;;;26.60;25.70;;;10.60;99.90;;;;;;5133497;27;20445;-71
2021/05/18 18:41:54;;;;;;;26.30;25.30;;;10.60;99.90;;;;;;5133613;27;20465;-70
2021/05/18 18:44:21;;;;;;;26.30;25.40;;;10.70;99.90;;;;;;5144269;27;20584;-70
2021/05/18 18:46:47;;;;;;;26.80;25.80;;;10.80;99.90;;;;;;5144641;27;20440;-71